sensor_id;sensor_type;location;lat;lon;timestamp;pressure;altitude;pressure_sealevel;temperature;humidity
56689;BME280;42565;53.342;-1.534;2022-09-09T00:00:17;97792.14;;;19.29;71.11
56689;BME280;42565;53.342;-1.534;2022-09-09T00:02:49;97791.67;;;19.44;71.29
56689;BME280;42565;53.342;-1.534;2022-09-09T00:05:27;97791.02;;;19.47;71.29
56689;BME280;42565;53.342;-1.534;2022-09-09T00:07:59;97794.04;;;19.40;71.44
56689;BME280;42565;53.342;-1.534;2022-09-09T00:10:29;97797.65;;;19.44;71.30
56689;BME280;42565;53.342;-1.534;2022-09-09T00:13:04;97799.96;;;19.19;71.62
56689;BME280;42565;53.342;-1.534;2022-09-09T00:15:37;97798.88;;;19.56;71.11
56689;BME280;42565;53.342;-1.534;2022-09-09T00:18:14;97800.89;;;19.66;70.91
56689;BME280;42565;53.342;-1.534;2022-09-09T00:20:49;97802.62;;;19.71;70.75
56689;BME280;42565;53.342;-1.534;2022-09-09T00:23:24;97803.31;;;19.81;70.39
56689;BME280;42565;53.342;-1.534;2022-09-09T00:25:59;97801.22;;;19.66;70.35
56689;BME280;42565;53.342;-1.534;2022-09-09T00:28:30;97805.27;;;19.61;70.37
56689;BME280;42565;53.342;-1.534;2022-09-09T00:31:11;97804.88;;;19.69;70.40
56689;BME280;42565;53.342;-1.534;2022-09-09T00:33:39;97805.84;;;19.64;70.08
56689;BME280;42565;53.342;-1.534;2022-09-09T00:36:12;97805.65;;;19.60;69.91
56689;BME280;42565;53.342;-1.534;2022-09-09T00:38:43;97801.25;;;19.65;69.67
56689;BME280;42565;53.342;-1.534;2022-09-09T00:41:17;97798.83;;;19.61;69.86
56689;BME280;42565;53.342;-1.534;2022-09-09T00:43:56;97797.66;;;19.83;69.89
56689;BME280;42565;53.342;-1.534;2022-09-09T00:46:40;97799.19;;;19.62;69.82
56689;BME280;42565;53.342;-1.534;2022-09-09T00:49:21;97798.17;;;19.77;69.97
56689;BME280;42565;53.342;-1.534;2022-09-09T00:52:01;97796.06;;;19.78;69.92
56689;BME280;42565;53.342;-1.534;2022-09-09T00:54:40;97797.99;;;19.68;69.62
56689;BME280;42565;53.342;-1.534;2022-09-09T00:57:23;97798.59;;;19.57;69.46
56689;BME280;42565;53.342;-1.534;2022-09-09T00:59:53;97799.77;;;19.91;69.88
56689;BME280;42565;53.342;-1.534;2022-09-09T01:02:28;97799.93;;;19.98;69.56
56689;BME280;42565;53.342;-1.534;2022-09-09T01:05:02;97797.59;;;19.64;70.05
56689;BME280;42565;53.342;-1.534;2022-09-09T01:07:32;97797.28;;;19.86;69.97
56689;BME280;42565;53.342;-1.534;2022-09-09T01:10:01;97796.63;;;19.92;69.95
56689;BME280;42565;53.342;-1.534;2022-09-09T01:12:38;97797.91;;;19.88;69.66
56689;BME280;42565;53.342;-1.534;2022-09-09T01:15:10;97796.67;;;20.04;69.45
56689;BME280;42565;53.342;-1.534;2022-09-09T01:17:49;97796.85;;;19.97;69.31
56689;BME280;42565;53.342;-1.534;2022-09-09T01:20:20;97799.57;;;19.84;69.47
56689;BME280;42565;53.342;-1.534;2022-09-09T01:23:11;97799.32;;;19.88;69.89
56689;BME280;42565;53.342;-1.534;2022-09-09T01:26:19;97797.74;;;19.69;69.60
56689;BME280;42565;53.342;-1.534;2022-09-09T01:28:49;97797.18;;;19.73;69.68
56689;BME280;42565;53.342;-1.534;2022-09-09T01:31:20;97800.54;;;19.67;70.00
56689;BME280;42565;53.342;-1.534;2022-09-09T01:33:48;97800.19;;;19.84;69.64
56689;BME280;42565;53.342;-1.534;2022-09-09T01:36:23;97801.59;;;19.71;69.37
56689;BME280;42565;53.342;-1.534;2022-09-09T01:38:52;97800.14;;;19.68;69.74
56689;BME280;42565;53.342;-1.534;2022-09-09T01:41:20;97799.98;;;19.60;70.05
56689;BME280;42565;53.342;-1.534;2022-09-09T01:43:48;97796.89;;;19.63;70.10
56689;BME280;42565;53.342;-1.534;2022-09-09T01:46:16;97794.88;;;19.81;69.81
56689;BME280;42565;53.342;-1.534;2022-09-09T01:48:45;97796.92;;;19.66;70.01
56689;BME280;42565;53.342;-1.534;2022-09-09T01:51:12;97796.47;;;19.75;70.15
56689;BME280;42565;53.342;-1.534;2022-09-09T01:53:39;97795.26;;;19.65;69.96
56689;BME280;42565;53.342;-1.534;2022-09-09T01:56:17;97798.13;;;19.64;70.05
56689;BME280;42565;53.342;-1.534;2022-09-09T01:59:03;97796.99;;;19.65;69.97
56689;BME280;42565;53.342;-1.534;2022-09-09T02:01:45;97797.06;;;19.73;69.71
56689;BME280;42565;53.342;-1.534;2022-09-09T02:04:27;97795.01;;;19.07;71.28
56689;BME280;42565;53.342;-1.534;2022-09-09T02:06:59;97785.63;;;19.07;71.03
56689;BME280;42565;53.342;-1.534;2022-09-09T02:09:29;97785.43;;;19.42;70.66
56689;BME280;42565;53.342;-1.534;2022-09-09T02:12:00;97784.50;;;19.21;71.33
56689;BME280;42565;53.342;-1.534;2022-09-09T02:14:33;97783.85;;;19.44;70.57
56689;BME280;42565;53.342;-1.534;2022-09-09T02:17:07;97778.70;;;19.25;71.12
56689;BME280;42565;53.342;-1.534;2022-09-09T02:19:39;97781.78;;;19.41;70.60
56689;BME280;42565;53.342;-1.534;2022-09-09T02:22:08;97781.68;;;19.38;70.65
56689;BME280;42565;53.342;-1.534;2022-09-09T02:24:38;97782.70;;;19.45;70.67
56689;BME280;42565;53.342;-1.534;2022-09-09T02:27:08;97784.77;;;19.37;70.71
56689;BME280;42565;53.342;-1.534;2022-09-09T02:29:39;97787.44;;;19.47;70.28
56689;BME280;42565;53.342;-1.534;2022-09-09T02:32:10;97787.15;;;19.40;70.88
56689;BME280;42565;53.342;-1.534;2022-09-09T02:34:43;97791.09;;;19.47;70.78
56689;BME280;42565;53.342;-1.534;2022-09-09T02:37:13;97790.12;;;19.70;70.33
56689;BME280;42565;53.342;-1.534;2022-09-09T02:39:42;97792.47;;;19.79;70.50
56689;BME280;42565;53.342;-1.534;2022-09-09T02:42:09;97791.68;;;19.36;70.26
56689;BME280;42565;53.342;-1.534;2022-09-09T02:44:36;97790.37;;;19.75;70.07
56689;BME280;42565;53.342;-1.534;2022-09-09T02:47:15;97787.80;;;19.48;70.43
56689;BME280;42565;53.342;-1.534;2022-09-09T02:49:57;97790.57;;;19.54;70.15
56689;BME280;42565;53.342;-1.534;2022-09-09T02:52:35;97790.22;;;19.48;70.52
56689;BME280;42565;53.342;-1.534;2022-09-09T02:55:18;97789.80;;;19.53;70.22
56689;BME280;42565;53.342;-1.534;2022-09-09T02:57:48;97792.65;;;19.68;70.59
56689;BME280;42565;53.342;-1.534;2022-09-09T03:00:16;97792.99;;;19.47;70.25
56689;BME280;42565;53.342;-1.534;2022-09-09T03:02:48;97790.89;;;19.26;70.51
56689;BME280;42565;53.342;-1.534;2022-09-09T03:05:16;97791.54;;;19.29;70.67
56689;BME280;42565;53.342;-1.534;2022-09-09T03:07:43;97792.28;;;19.36;71.78
56689;BME280;42565;53.342;-1.534;2022-09-09T03:10:09;97786.99;;;19.25;71.01
56689;BME280;42565;53.342;-1.534;2022-09-09T03:12:36;97786.07;;;19.32;70.55
56689;BME280;42565;53.342;-1.534;2022-09-09T03:15:05;97785.95;;;19.40;70.50
56689;BME280;42565;53.342;-1.534;2022-09-09T03:17:32;97786.77;;;18.97;71.23
56689;BME280;42565;53.342;-1.534;2022-09-09T03:19:59;97785.23;;;18.89;71.25
56689;BME280;42565;53.342;-1.534;2022-09-09T03:22:26;97781.75;;;18.85;72.04
56689;BME280;42565;53.342;-1.534;2022-09-09T03:24:53;97784.43;;;18.81;71.96
56689;BME280;42565;53.342;-1.534;2022-09-09T03:27:19;97788.33;;;18.79;72.00
56689;BME280;42565;53.342;-1.534;2022-09-09T03:29:46;97786.08;;;19.25;71.69
56689;BME280;42565;53.342;-1.534;2022-09-09T03:32:13;97788.56;;;19.18;71.10
56689;BME280;42565;53.342;-1.534;2022-09-09T03:34:40;97790.27;;;19.56;71.23
56689;BME280;42565;53.342;-1.534;2022-09-09T03:37:08;97792.73;;;19.17;71.85
56689;BME280;42565;53.342;-1.534;2022-09-09T03:39:35;97794.88;;;18.98;71.51
56689;BME280;42565;53.342;-1.534;2022-09-09T03:42:03;97792.37;;;19.07;71.41
56689;BME280;42565;53.342;-1.534;2022-09-09T03:44:30;97798.17;;;19.18;71.04
56689;BME280;42565;53.342;-1.534;2022-09-09T03:46:57;97796.37;;;19.12;71.22
56689;BME280;42565;53.342;-1.534;2022-09-09T03:49:24;97797.57;;;19.28;70.92
56689;BME280;42565;53.342;-1.534;2022-09-09T03:51:51;97795.50;;;19.43;70.41
56689;BME280;42565;53.342;-1.534;2022-09-09T03:54:18;97795.37;;;19.07;70.74
56689;BME280;42565;53.342;-1.534;2022-09-09T03:56:45;97795.62;;;19.38;70.69
56689;BME280;42565;53.342;-1.534;2022-09-09T03:59:12;97798.83;;;19.30;70.84
56689;BME280;42565;53.342;-1.534;2022-09-09T04:01:39;97796.26;;;19.18;70.82
56689;BME280;42565;53.342;-1.534;2022-09-09T04:04:06;97797.54;;;19.09;70.92
56689;BME280;42565;53.342;-1.534;2022-09-09T04:06:33;97800.32;;;18.95;71.33
56689;BME280;42565;53.342;-1.534;2022-09-09T04:09:00;97801.32;;;18.95;71.29
56689;BME280;42565;53.342;-1.534;2022-09-09T04:11:28;97798.61;;;19.03;71.25
56689;BME280;42565;53.342;-1.534;2022-09-09T04:13:55;97800.51;;;19.24;71.50
56689;BME280;42565;53.342;-1.534;2022-09-09T04:16:22;97799.75;;;19.34;71.06
56689;BME280;42565;53.342;-1.534;2022-09-09T04:18:49;97803.47;;;19.15;70.87
56689;BME280;42565;53.342;-1.534;2022-09-09T04:21:16;97802.71;;;19.38;71.04
56689;BME280;42565;53.342;-1.534;2022-09-09T04:23:43;97801.64;;;19.29;70.93
56689;BME280;42565;53.342;-1.534;2022-09-09T04:26:10;97803.75;;;19.23;71.02
56689;BME280;42565;53.342;-1.534;2022-09-09T04:28:37;97802.91;;;19.27;70.87
56689;BME280;42565;53.342;-1.534;2022-09-09T04:31:05;97803.22;;;19.18;70.63
56689;BME280;42565;53.342;-1.534;2022-09-09T04:33:33;97806.16;;;19.13;70.71
56689;BME280;42565;53.342;-1.534;2022-09-09T04:36:01;97808.74;;;19.04;71.13
56689;BME280;42565;53.342;-1.534;2022-09-09T04:38:27;97807.72;;;19.09;71.00
56689;BME280;42565;53.342;-1.534;2022-09-09T04:40:55;97806.82;;;19.44;70.88
56689;BME280;42565;53.342;-1.534;2022-09-09T04:43:22;97808.60;;;19.31;70.68
56689;BME280;42565;53.342;-1.534;2022-09-09T04:45:50;97810.08;;;19.22;70.94
56689;BME280;42565;53.342;-1.534;2022-09-09T04:48:19;97812.63;;;19.25;70.72
56689;BME280;42565;53.342;-1.534;2022-09-09T04:50:54;97816.17;;;19.13;71.25
56689;BME280;42565;53.342;-1.534;2022-09-09T04:53:22;97818.77;;;18.97;71.85
56689;BME280;42565;53.342;-1.534;2022-09-09T04:55:49;97820.63;;;19.33;71.33
56689;BME280;42565;53.342;-1.534;2022-09-09T04:58:16;97820.43;;;19.08;71.20
56689;BME280;42565;53.342;-1.534;2022-09-09T05:00:43;97822.77;;;19.12;71.16
56689;BME280;42565;53.342;-1.534;2022-09-09T05:03:10;97825.03;;;18.98;71.47
56689;BME280;42565;53.342;-1.534;2022-09-09T05:05:37;97826.45;;;18.99;71.51
56689;BME280;42565;53.342;-1.534;2022-09-09T05:08:06;97832.39;;;19.34;71.16
56689;BME280;42565;53.342;-1.534;2022-09-09T05:10:36;97837.76;;;19.04;70.85
56689;BME280;42565;53.342;-1.534;2022-09-09T05:13:03;97837.96;;;19.16;70.60
56689;BME280;42565;53.342;-1.534;2022-09-09T05:15:31;97837.52;;;19.04;70.96
56689;BME280;42565;53.342;-1.534;2022-09-09T05:17:59;97839.67;;;19.21;70.98
56689;BME280;42565;53.342;-1.534;2022-09-09T05:20:27;97839.75;;;19.08;70.72
56689;BME280;42565;53.342;-1.534;2022-09-09T05:22:54;97841.59;;;19.01;70.63
56689;BME280;42565;53.342;-1.534;2022-09-09T05:25:21;97843.50;;;19.33;70.50
56689;BME280;42565;53.342;-1.534;2022-09-09T05:27:49;97840.15;;;19.17;70.57
56689;BME280;42565;53.342;-1.534;2022-09-09T05:30:16;97839.73;;;19.16;70.70
56689;BME280;42565;53.342;-1.534;2022-09-09T05:32:43;97840.98;;;19.33;70.46
56689;BME280;42565;53.342;-1.534;2022-09-09T05:35:10;97843.42;;;19.10;70.16
56689;BME280;42565;53.342;-1.534;2022-09-09T05:37:37;97841.04;;;19.27;70.15
56689;BME280;42565;53.342;-1.534;2022-09-09T05:40:05;97843.34;;;19.28;70.41
56689;BME280;42565;53.342;-1.534;2022-09-09T05:42:32;97845.72;;;19.28;70.37
56689;BME280;42565;53.342;-1.534;2022-09-09T05:44:59;97845.58;;;19.57;69.94
56689;BME280;42565;53.342;-1.534;2022-09-09T05:47:26;97849.85;;;18.95;70.96
56689;BME280;42565;53.342;-1.534;2022-09-09T05:49:54;97853.72;;;19.27;70.73
56689;BME280;42565;53.342;-1.534;2022-09-09T05:52:21;97854.99;;;19.46;70.24
56689;BME280;42565;53.342;-1.534;2022-09-09T05:54:48;97854.34;;;19.12;71.65
56689;BME280;42565;53.342;-1.534;2022-09-09T05:57:15;97857.60;;;18.93;71.01
56689;BME280;42565;53.342;-1.534;2022-09-09T05:59:42;97858.93;;;19.61;71.00
56689;BME280;42565;53.342;-1.534;2022-09-09T06:02:09;97858.63;;;19.32;71.07
56689;BME280;42565;53.342;-1.534;2022-09-09T06:04:36;97858.89;;;18.98;71.11
56689;BME280;42565;53.342;-1.534;2022-09-09T06:07:03;97863.26;;;18.96;71.19
56689;BME280;42565;53.342;-1.534;2022-09-09T06:09:31;97866.25;;;19.57;70.69
56689;BME280;42565;53.342;-1.534;2022-09-09T06:11:58;97867.67;;;19.11;70.60
56689;BME280;42565;53.342;-1.534;2022-09-09T06:14:25;97869.77;;;19.13;70.79
56689;BME280;42565;53.342;-1.534;2022-09-09T06:16:52;97872.17;;;19.12;71.10
56689;BME280;42565;53.342;-1.534;2022-09-09T06:19:19;97869.52;;;19.05;71.00
56689;BME280;42565;53.342;-1.534;2022-09-09T06:21:46;97871.69;;;18.96;72.25
56689;BME280;42565;53.342;-1.534;2022-09-09T06:24:13;97872.22;;;19.13;71.59
56689;BME280;42565;53.342;-1.534;2022-09-09T06:26:40;97876.58;;;18.87;71.78
56689;BME280;42565;53.342;-1.534;2022-09-09T06:29:09;97878.01;;;18.97;71.35
56689;BME280;42565;53.342;-1.534;2022-09-09T06:31:37;97881.25;;;19.16;71.70
56689;BME280;42565;53.342;-1.534;2022-09-09T06:34:06;97883.32;;;19.09;71.17
56689;BME280;42565;53.342;-1.534;2022-09-09T06:36:34;97886.21;;;19.31;70.76
56689;BME280;42565;53.342;-1.534;2022-09-09T06:39:02;97888.71;;;19.33;70.28
56689;BME280;42565;53.342;-1.534;2022-09-09T06:41:31;97889.10;;;19.48;70.26
56689;BME280;42565;53.342;-1.534;2022-09-09T06:43:59;97889.27;;;19.41;70.01
56689;BME280;42565;53.342;-1.534;2022-09-09T06:46:27;97889.85;;;19.35;70.40
56689;BME280;42565;53.342;-1.534;2022-09-09T06:48:55;97891.60;;;19.11;69.84
56689;BME280;42565;53.342;-1.534;2022-09-09T06:51:25;97891.98;;;19.35;69.77
56689;BME280;42565;53.342;-1.534;2022-09-09T06:53:54;97892.76;;;19.63;69.35
56689;BME280;42565;53.342;-1.534;2022-09-09T06:56:23;97895.51;;;19.75;69.47
56689;BME280;42565;53.342;-1.534;2022-09-09T06:58:51;97902.09;;;19.62;69.48
56689;BME280;42565;53.342;-1.534;2022-09-09T07:01:20;97901.19;;;19.59;69.71
56689;BME280;42565;53.342;-1.534;2022-09-09T07:03:48;97901.67;;;19.38;70.22
56689;BME280;42565;53.342;-1.534;2022-09-09T07:06:17;97901.29;;;19.24;70.94
56689;BME280;42565;53.342;-1.534;2022-09-09T07:08:50;97905.96;;;19.33;70.63
56689;BME280;42565;53.342;-1.534;2022-09-09T07:11:19;97906.81;;;19.15;70.70
56689;BME280;42565;53.342;-1.534;2022-09-09T07:13:46;97910.61;;;19.11;70.90
56689;BME280;42565;53.342;-1.534;2022-09-09T07:16:15;97912.11;;;18.97;70.31
56689;BME280;42565;53.342;-1.534;2022-09-09T07:18:43;97916.76;;;18.94;70.88
56689;BME280;42565;53.342;-1.534;2022-09-09T07:21:11;97914.66;;;19.00;70.65
56689;BME280;42565;53.342;-1.534;2022-09-09T07:23:39;97917.91;;;19.42;69.91
56689;BME280;42565;53.342;-1.534;2022-09-09T07:26:09;97922.08;;;19.54;69.34
56689;BME280;42565;53.342;-1.534;2022-09-09T07:28:36;97919.14;;;19.38;69.85
56689;BME280;42565;53.342;-1.534;2022-09-09T07:31:05;97922.96;;;19.54;70.11
56689;BME280;42565;53.342;-1.534;2022-09-09T07:33:33;97924.41;;;19.49;70.03
56689;BME280;42565;53.342;-1.534;2022-09-09T07:36:05;97927.12;;;19.45;69.70
56689;BME280;42565;53.342;-1.534;2022-09-09T07:38:32;97926.64;;;19.64;69.27
56689;BME280;42565;53.342;-1.534;2022-09-09T07:41:04;97926.21;;;19.79;70.50
56689;BME280;42565;53.342;-1.534;2022-09-09T07:43:31;97929.03;;;19.78;69.97
56689;BME280;42565;53.342;-1.534;2022-09-09T07:45:59;97931.11;;;19.67;69.96
56689;BME280;42565;53.342;-1.534;2022-09-09T07:48:28;97933.69;;;19.39;69.30
56689;BME280;42565;53.342;-1.534;2022-09-09T07:51:05;97936.97;;;19.72;68.94
56689;BME280;42565;53.342;-1.534;2022-09-09T07:53:34;97944.49;;;19.96;68.51
56689;BME280;42565;53.342;-1.534;2022-09-09T07:56:03;97949.06;;;20.11;68.30
56689;BME280;42565;53.342;-1.534;2022-09-09T07:58:30;97949.57;;;19.74;69.77
56689;BME280;42565;53.342;-1.534;2022-09-09T08:00:57;97950.92;;;19.66;69.76
56689;BME280;42565;53.342;-1.534;2022-09-09T08:03:24;97954.84;;;19.32;70.64
56689;BME280;42565;53.342;-1.534;2022-09-09T08:05:51;97956.55;;;20.02;70.15
56689;BME280;42565;53.342;-1.534;2022-09-09T08:08:18;97960.28;;;19.51;70.83
56689;BME280;42565;53.342;-1.534;2022-09-09T08:10:45;97961.58;;;19.34;71.81
56689;BME280;42565;53.342;-1.534;2022-09-09T08:13:12;97960.67;;;19.47;71.49
56689;BME280;42565;53.342;-1.534;2022-09-09T08:15:39;97959.53;;;19.46;70.63
56689;BME280;42565;53.342;-1.534;2022-09-09T08:18:07;97960.18;;;19.58;70.97
56689;BME280;42565;53.342;-1.534;2022-09-09T08:20:36;97960.50;;;19.46;70.31
56689;BME280;42565;53.342;-1.534;2022-09-09T08:23:02;97964.68;;;19.52;70.19
56689;BME280;42565;53.342;-1.534;2022-09-09T08:25:30;97966.51;;;19.48;70.98
56689;BME280;42565;53.342;-1.534;2022-09-09T08:27:56;97969.68;;;19.64;70.16
56689;BME280;42565;53.342;-1.534;2022-09-09T08:30:23;97974.31;;;20.10;69.64
56689;BME280;42565;53.342;-1.534;2022-09-09T08:32:50;97976.86;;;19.84;70.45
56689;BME280;42565;53.342;-1.534;2022-09-09T08:35:17;97975.07;;;19.87;70.29
56689;BME280;42565;53.342;-1.534;2022-09-09T08:37:44;97978.35;;;20.24;69.40
56689;BME280;42565;53.342;-1.534;2022-09-09T08:40:19;97982.36;;;20.40;69.16
56689;BME280;42565;53.342;-1.534;2022-09-09T08:42:52;97983.90;;;19.92;69.47
56689;BME280;42565;53.342;-1.534;2022-09-09T08:45:29;97984.00;;;19.80;69.70
56689;BME280;42565;53.342;-1.534;2022-09-09T08:48:12;97988.57;;;19.84;69.70
56689;BME280;42565;53.342;-1.534;2022-09-09T08:50:43;97992.06;;;19.71;68.71
56689;BME280;42565;53.342;-1.534;2022-09-09T08:53:16;97992.51;;;19.67;68.91
56689;BME280;42565;53.342;-1.534;2022-09-09T08:55:47;97998.64;;;19.88;68.17
56689;BME280;42565;53.342;-1.534;2022-09-09T08:58:16;98000.04;;;20.14;68.75
56689;BME280;42565;53.342;-1.534;2022-09-09T09:00:57;98006.43;;;20.07;69.09
56689;BME280;42565;53.342;-1.534;2022-09-09T09:03:35;98007.70;;;20.20;68.60
56689;BME280;42565;53.342;-1.534;2022-09-09T09:06:13;98006.66;;;20.07;68.02
56689;BME280;42565;53.342;-1.534;2022-09-09T09:08:53;98009.06;;;19.96;69.14
56689;BME280;42565;53.342;-1.534;2022-09-09T09:11:23;98012.59;;;19.98;69.05
56689;BME280;42565;53.342;-1.534;2022-09-09T09:13:54;98013.46;;;20.06;69.17
56689;BME280;42565;53.342;-1.534;2022-09-09T09:16:29;98018.24;;;20.11;67.99
56689;BME280;42565;53.342;-1.534;2022-09-09T09:18:57;98016.49;;;20.22;67.55
56689;BME280;42565;53.342;-1.534;2022-09-09T09:21:32;98019.51;;;20.06;68.53
56689;BME280;42565;53.342;-1.534;2022-09-09T09:24:01;98023.05;;;20.30;67.35
56689;BME280;42565;53.342;-1.534;2022-09-09T09:26:34;98025.07;;;20.49;67.64
56689;BME280;42565;53.342;-1.534;2022-09-09T09:29:10;98025.22;;;20.59;65.77
56689;BME280;42565;53.342;-1.534;2022-09-09T09:31:38;98029.74;;;20.64;66.49
56689;BME280;42565;53.342;-1.534;2022-09-09T09:34:04;98030.88;;;20.61;66.21
56689;BME280;42565;53.342;-1.534;2022-09-09T09:36:40;98030.92;;;20.87;66.07
56689;BME280;42565;53.342;-1.534;2022-09-09T09:39:08;98033.16;;;21.08;63.92
56689;BME280;42565;53.342;-1.534;2022-09-09T09:41:38;98034.29;;;20.86;64.77
56689;BME280;42565;53.342;-1.534;2022-09-09T09:44:18;98038.98;;;20.29;65.38
56689;BME280;42565;53.342;-1.534;2022-09-09T09:46:48;98042.57;;;20.60;63.80
56689;BME280;42565;53.342;-1.534;2022-09-09T09:49:15;98046.72;;;20.65;64.17
56689;BME280;42565;53.342;-1.534;2022-09-09T09:51:43;98049.84;;;20.66;63.32
56689;BME280;42565;53.342;-1.534;2022-09-09T09:54:17;98049.36;;;20.66;65.05
56689;BME280;42565;53.342;-1.534;2022-09-09T09:56:46;98057.04;;;20.68;64.50
56689;BME280;42565;53.342;-1.534;2022-09-09T09:59:23;98056.49;;;20.28;64.42
56689;BME280;42565;53.342;-1.534;2022-09-09T10:01:50;98057.48;;;20.15;65.67
56689;BME280;42565;53.342;-1.534;2022-09-09T10:04:19;98060.24;;;20.50;64.17
56689;BME280;42565;53.342;-1.534;2022-09-09T10:06:47;98063.01;;;20.76;62.25
56689;BME280;42565;53.342;-1.534;2022-09-09T10:09:23;98062.26;;;21.17;61.70
56689;BME280;42565;53.342;-1.534;2022-09-09T10:11:57;98063.38;;;21.13;64.00
56689;BME280;42565;53.342;-1.534;2022-09-09T10:14:34;98062.26;;;22.10;59.54
56689;BME280;42565;53.342;-1.534;2022-09-09T10:17:16;98057.63;;;22.33;58.34
56689;BME280;42565;53.342;-1.534;2022-09-09T10:19:57;98058.07;;;22.67;56.19
56689;BME280;42565;53.342;-1.534;2022-09-09T10:22:31;98057.60;;;22.62;55.62
56689;BME280;42565;53.342;-1.534;2022-09-09T10:25:16;98061.93;;;23.32;56.20
56689;BME280;42565;53.342;-1.534;2022-09-09T10:28:07;98058.65;;;23.65;52.32
56689;BME280;42565;53.342;-1.534;2022-09-09T10:30:47;98058.32;;;23.96;54.32
56689;BME280;42565;53.342;-1.534;2022-09-09T10:33:21;98065.93;;;24.17;53.68
56689;BME280;42565;53.342;-1.534;2022-09-09T10:36:00;98065.60;;;24.57;52.11
56689;BME280;42565;53.342;-1.534;2022-09-09T10:38:39;98068.07;;;25.15;49.17
56689;BME280;42565;53.342;-1.534;2022-09-09T10:41:37;98065.54;;;25.24;46.11
56689;BME280;42565;53.342;-1.534;2022-09-09T10:44:32;98059.20;;;25.49;45.12
56689;BME280;42565;53.342;-1.534;2022-09-09T10:47:24;98057.93;;;25.36;44.56
56689;BME280;42565;53.342;-1.534;2022-09-09T10:50:06;98064.42;;;25.86;45.45
56689;BME280;42565;53.342;-1.534;2022-09-09T10:52:42;98065.80;;;25.49;45.26
56689;BME280;42565;53.342;-1.534;2022-09-09T10:55:17;98064.63;;;25.44;47.94
56689;BME280;42565;53.342;-1.534;2022-09-09T10:57:46;98068.40;;;26.05;45.50
56689;BME280;42565;53.342;-1.534;2022-09-09T11:00:18;98071.92;;;26.43;42.94
56689;BME280;42565;53.342;-1.534;2022-09-09T11:02:49;98069.72;;;26.46;41.77
56689;BME280;42565;53.342;-1.534;2022-09-09T11:05:20;98070.58;;;26.11;41.62
56689;BME280;42565;53.342;-1.534;2022-09-09T11:07:50;98068.45;;;26.24;42.10
56689;BME280;42565;53.342;-1.534;2022-09-09T11:10:25;98067.52;;;25.71;43.77
56689;BME280;42565;53.342;-1.534;2022-09-09T11:13:00;98065.62;;;26.77;42.87
56689;BME280;42565;53.342;-1.534;2022-09-09T11:15:35;98061.41;;;26.84;40.95
56689;BME280;42565;53.342;-1.534;2022-09-09T11:18:04;98062.87;;;27.35;42.08
56689;BME280;42565;53.342;-1.534;2022-09-09T11:20:34;98061.26;;;26.90;41.73
56689;BME280;42565;53.342;-1.534;2022-09-09T11:23:04;98061.99;;;27.39;42.01
56689;BME280;42565;53.342;-1.534;2022-09-09T11:25:38;98062.43;;;27.26;41.78
56689;BME280;42565;53.342;-1.534;2022-09-09T11:28:26;98060.02;;;28.04;40.25
56689;BME280;42565;53.342;-1.534;2022-09-09T11:31:09;98065.00;;;28.37;38.21
56689;BME280;42565;53.342;-1.534;2022-09-09T11:33:57;98065.79;;;28.38;39.19
56689;BME280;42565;53.342;-1.534;2022-09-09T11:37:47;98068.19;;;27.51;37.81
56689;BME280;42565;53.342;-1.534;2022-09-09T11:40:19;98068.56;;;27.46;39.75
56689;BME280;42565;53.342;-1.534;2022-09-09T11:42:49;98065.90;;;27.43;38.89
56689;BME280;42565;53.342;-1.534;2022-09-09T11:45:28;98067.38;;;26.99;38.74
56689;BME280;42565;53.342;-1.534;2022-09-09T11:47:57;98071.51;;;26.55;40.42
56689;BME280;42565;53.342;-1.534;2022-09-09T11:50:30;98071.99;;;26.49;41.44
56689;BME280;42565;53.342;-1.534;2022-09-09T11:53:18;98074.74;;;25.39;42.01
56689;BME280;42565;53.342;-1.534;2022-09-09T11:55:45;98077.24;;;25.49;43.05
56689;BME280;42565;53.342;-1.534;2022-09-09T11:58:17;98083.29;;;25.30;44.16
56689;BME280;42565;53.342;-1.534;2022-09-09T12:00:46;98086.24;;;25.33;44.94
56689;BME280;42565;53.342;-1.534;2022-09-09T12:03:34;98082.65;;;25.08;45.38
56689;BME280;42565;53.342;-1.534;2022-09-09T12:06:10;98087.05;;;24.95;46.39
56689;BME280;42565;53.342;-1.534;2022-09-09T12:08:42;98089.84;;;25.19;48.00
56689;BME280;42565;53.342;-1.534;2022-09-09T12:11:10;98090.49;;;25.05;48.88
56689;BME280;42565;53.342;-1.534;2022-09-09T12:13:38;98092.84;;;24.53;47.10
56689;BME280;42565;53.342;-1.534;2022-09-09T12:16:05;98090.56;;;24.68;48.11
56689;BME280;42565;53.342;-1.534;2022-09-09T12:18:34;98085.14;;;24.01;48.46
56689;BME280;42565;53.342;-1.534;2022-09-09T12:21:07;98084.57;;;24.28;49.03
56689;BME280;42565;53.342;-1.534;2022-09-09T12:23:45;98082.31;;;25.01;49.76
56689;BME280;42565;53.342;-1.534;2022-09-09T12:26:27;98079.56;;;24.92;46.99
56689;BME280;42565;53.342;-1.534;2022-09-09T12:29:04;98083.46;;;25.38;44.41
56689;BME280;42565;53.342;-1.534;2022-09-09T12:31:42;98082.38;;;25.83;45.14
56689;BME280;42565;53.342;-1.534;2022-09-09T12:34:15;98080.57;;;25.99;42.87
56689;BME280;42565;53.342;-1.534;2022-09-09T12:36:43;98079.59;;;26.45;41.08
56689;BME280;42565;53.342;-1.534;2022-09-09T12:39:19;98088.01;;;25.75;42.09
56689;BME280;42565;53.342;-1.534;2022-09-09T12:41:52;98102.39;;;25.76;43.12
56689;BME280;42565;53.342;-1.534;2022-09-09T12:44:19;98114.57;;;25.03;47.86
56689;BME280;42565;53.342;-1.534;2022-09-09T12:46:47;98116.78;;;24.76;50.46
56689;BME280;42565;53.342;-1.534;2022-09-09T12:49:28;98119.30;;;24.31;51.88
56689;BME280;42565;53.342;-1.534;2022-09-09T12:51:56;98119.92;;;24.18;53.15
56689;BME280;42565;53.342;-1.534;2022-09-09T12:54:23;98118.12;;;23.92;53.89
56689;BME280;42565;53.342;-1.534;2022-09-09T12:56:50;98117.08;;;23.62;52.71
56689;BME280;42565;53.342;-1.534;2022-09-09T12:59:23;98120.69;;;23.58;55.39
56689;BME280;42565;53.342;-1.534;2022-09-09T13:01:56;98123.13;;;23.72;55.86
56689;BME280;42565;53.342;-1.534;2022-09-09T13:04:23;98124.48;;;24.20;56.31
56689;BME280;42565;53.342;-1.534;2022-09-09T13:06:51;98130.52;;;23.93;57.87
56689;BME280;42565;53.342;-1.534;2022-09-09T13:09:18;98138.51;;;24.27;56.79
56689;BME280;42565;53.342;-1.534;2022-09-09T13:11:49;98147.93;;;23.94;56.33